sensor_id;sensor_type;location;lat;lon;timestamp;temperature;humidity
72206;DHT22;60111;48.286;7.812;2023-02-18T00:00:26;11.40;79.80
72206;DHT22;60111;48.286;7.812;2023-02-18T00:02:59;11.30;80.20
72206;DHT22;60111;48.286;7.812;2023-02-18T00:05:31;11.30;80.10
72206;DHT22;60111;48.286;7.812;2023-02-18T00:08:04;11.30;80.20
72206;DHT22;60111;48.286;7.812;2023-02-18T00:10:43;11.30;80.10
72206;DHT22;60111;48.286;7.812;2023-02-18T00:13:12;11.40;79.90
72206;DHT22;60111;48.286;7.812;2023-02-18T00:15:45;11.40;80.10
72206;DHT22;60111;48.286;7.812;2023-02-18T00:18:18;11.30;80.00
72206;DHT22;60111;48.286;7.812;2023-02-18T00:20:50;11.30;80.10
72206;DHT22;60111;48.286;7.812;2023-02-18T00:23:23;11.30;80.00
72206;DHT22;60111;48.286;7.812;2023-02-18T00:26:09;11.30;80.20
72206;DHT22;60111;48.286;7.812;2023-02-18T00:28:41;11.30;80.10
72206;DHT22;60111;48.286;7.812;2023-02-18T00:31:17;11.30;80.40
72206;DHT22;60111;48.286;7.812;2023-02-18T00:33:49;11.30;80.50
72206;DHT22;60111;48.286;7.812;2023-02-18T00:36:22;11.30;80.30
72206;DHT22;60111;48.286;7.812;2023-02-18T00:38:58;11.30;80.60
72206;DHT22;60111;48.286;7.812;2023-02-18T00:41:31;11.30;80.70
72206;DHT22;60111;48.286;7.812;2023-02-18T00:44:04;11.30;80.80
72206;DHT22;60111;48.286;7.812;2023-02-18T00:46:37;11.30;80.60
72206;DHT22;60111;48.286;7.812;2023-02-18T00:49:10;11.20;80.70
72206;DHT22;60111;48.286;7.812;2023-02-18T00:51:43;11.20;80.90
72206;DHT22;60111;48.286;7.812;2023-02-18T00:54:15;11.20;80.80
72206;DHT22;60111;48.286;7.812;2023-02-18T00:56:48;11.20;80.90
72206;DHT22;60111;48.286;7.812;2023-02-18T00:59:20;11.20;81.00
72206;DHT22;60111;48.286;7.812;2023-02-18T01:01:53;11.20;80.90
72206;DHT22;60111;48.286;7.812;2023-02-18T01:04:25;11.20;81.20
72206;DHT22;60111;48.286;7.812;2023-02-18T01:06:58;11.20;81.10
72206;DHT22;60111;48.286;7.812;2023-02-18T01:09:30;11.20;81.10
72206;DHT22;60111;48.286;7.812;2023-02-18T01:12:03;11.20;81.00
72206;DHT22;60111;48.286;7.812;2023-02-18T01:14:36;11.20;81.00
72206;DHT22;60111;48.286;7.812;2023-02-18T01:17:09;11.20;81.00
72206;DHT22;60111;48.286;7.812;2023-02-18T01:19:41;11.30;80.70
72206;DHT22;60111;48.286;7.812;2023-02-18T01:22:14;11.30;80.70
72206;DHT22;60111;48.286;7.812;2023-02-18T01:24:47;11.30;80.60
72206;DHT22;60111;48.286;7.812;2023-02-18T01:27:20;11.20;80.90
72206;DHT22;60111;48.286;7.812;2023-02-18T01:29:52;11.20;81.00
72206;DHT22;60111;48.286;7.812;2023-02-18T01:32:25;11.30;81.00
72206;DHT22;60111;48.286;7.812;2023-02-18T01:34:59;11.20;81.10
72206;DHT22;60111;48.286;7.812;2023-02-18T01:37:32;11.30;80.80
72206;DHT22;60111;48.286;7.812;2023-02-18T01:40:25;11.20;81.00
72206;DHT22;60111;48.286;7.812;2023-02-18T01:42:59;11.20;81.10
72206;DHT22;60111;48.286;7.812;2023-02-18T01:45:50;11.20;81.10
72206;DHT22;60111;48.286;7.812;2023-02-18T01:48:25;11.30;81.10
72206;DHT22;60111;48.286;7.812;2023-02-18T01:51:01;11.20;81.20
72206;DHT22;60111;48.286;7.812;2023-02-18T01:53:55;11.30;81.10
72206;DHT22;60111;48.286;7.812;2023-02-18T01:56:52;11.30;81.00
72206;DHT22;60111;48.286;7.812;2023-02-18T01:59:26;11.30;81.10
72206;DHT22;60111;48.286;7.812;2023-02-18T02:01:59;11.30;81.00
72206;DHT22;60111;48.286;7.812;2023-02-18T02:04:34;11.30;80.90
72206;DHT22;60111;48.286;7.812;2023-02-18T02:07:07;11.30;81.00
72206;DHT22;60111;48.286;7.812;2023-02-18T02:09:40;11.30;81.00
72206;DHT22;60111;48.286;7.812;2023-02-18T02:13:19;11.30;80.90
72206;DHT22;60111;48.286;7.812;2023-02-18T02:32:20;11.30;80.90
72206;DHT22;60111;48.286;7.812;2023-02-18T02:35:25;11.30;81.10
72206;DHT22;60111;48.286;7.812;2023-02-18T02:37:43;11.30;81.10
72206;DHT22;60111;48.286;7.812;2023-02-18T02:40:44;11.30;81.00
72206;DHT22;60111;48.286;7.812;2023-02-18T02:49:08;11.30;81.00
72206;DHT22;60111;48.286;7.812;2023-02-18T02:51:58;11.30;81.20
72206;DHT22;60111;48.286;7.812;2023-02-18T02:54:30;11.20;81.30
72206;DHT22;60111;48.286;7.812;2023-02-18T02:59:47;11.20;81.40
72206;DHT22;60111;48.286;7.812;2023-02-18T03:08:21;11.20;81.70
72206;DHT22;60111;48.286;7.812;2023-02-18T03:11:11;11.20;81.70
72206;DHT22;60111;48.286;7.812;2023-02-18T03:16:43;11.10;81.80
72206;DHT22;60111;48.286;7.812;2023-02-18T03:22:11;11.20;81.90
72206;DHT22;60111;48.286;7.812;2023-02-18T03:24:45;11.20;81.80
72206;DHT22;60111;48.286;7.812;2023-02-18T03:27:32;11.20;81.80
72206;DHT22;60111;48.286;7.812;2023-02-18T03:30:18;11.20;81.70
72206;DHT22;60111;48.286;7.812;2023-02-18T03:32:52;11.20;81.80
72206;DHT22;60111;48.286;7.812;2023-02-18T03:35:27;11.20;81.70
72206;DHT22;60111;48.286;7.812;2023-02-18T03:40:55;11.20;81.90
72206;DHT22;60111;48.286;7.812;2023-02-18T03:43:28;11.20;81.80
72206;DHT22;60111;48.286;7.812;2023-02-18T03:46:01;11.30;81.50
72206;DHT22;60111;48.286;7.812;2023-02-18T03:48:34;11.30;81.70
72206;DHT22;60111;48.286;7.812;2023-02-18T03:51:07;11.30;81.60
72206;DHT22;60111;48.286;7.812;2023-02-18T03:53:59;11.20;81.50
72206;DHT22;60111;48.286;7.812;2023-02-18T03:56:33;11.30;81.50
72206;DHT22;60111;48.286;7.812;2023-02-18T03:59:05;11.20;81.60
72206;DHT22;60111;48.286;7.812;2023-02-18T04:01:38;11.20;81.70
72206;DHT22;60111;48.286;7.812;2023-02-18T04:04:10;11.30;81.70
72206;DHT22;60111;48.286;7.812;2023-02-18T04:06:43;11.30;81.70
72206;DHT22;60111;48.286;7.812;2023-02-18T04:09:15;11.30;81.60
72206;DHT22;60111;48.286;7.812;2023-02-18T04:11:48;11.30;81.60
72206;DHT22;60111;48.286;7.812;2023-02-18T04:14:20;11.20;81.80
72206;DHT22;60111;48.286;7.812;2023-02-18T04:16:53;11.30;81.60
72206;DHT22;60111;48.286;7.812;2023-02-18T04:19:26;11.30;81.40
72206;DHT22;60111;48.286;7.812;2023-02-18T04:22:18;11.30;81.60
72206;DHT22;60111;48.286;7.812;2023-02-18T04:24:50;11.30;81.60
72206;DHT22;60111;48.286;7.812;2023-02-18T04:27:23;11.30;81.40
72206;DHT22;60111;48.286;7.812;2023-02-18T04:29:55;11.40;81.20
72206;DHT22;60111;48.286;7.812;2023-02-18T04:32:28;11.40;81.10
72206;DHT22;60111;48.286;7.812;2023-02-18T04:35:00;11.40;81.10
72206;DHT22;60111;48.286;7.812;2023-02-18T04:37:33;11.30;81.30
72206;DHT22;60111;48.286;7.812;2023-02-18T04:40:07;11.30;81.20
72206;DHT22;60111;48.286;7.812;2023-02-18T04:42:40;11.30;81.30
72206;DHT22;60111;48.286;7.812;2023-02-18T04:45:13;11.40;81.20
72206;DHT22;60111;48.286;7.812;2023-02-18T04:47:45;11.30;81.20
72206;DHT22;60111;48.286;7.812;2023-02-18T04:50:18;11.40;81.20
72206;DHT22;60111;48.286;7.812;2023-02-18T04:52:51;11.40;81.10
72206;DHT22;60111;48.286;7.812;2023-02-18T04:55:24;11.40;81.00
72206;DHT22;60111;48.286;7.812;2023-02-18T04:57:56;11.40;81.00
72206;DHT22;60111;48.286;7.812;2023-02-18T05:00:29;11.40;80.70
72206;DHT22;60111;48.286;7.812;2023-02-18T05:03:02;11.40;80.70
72206;DHT22;60111;48.286;7.812;2023-02-18T05:05:34;11.50;80.60
72206;DHT22;60111;48.286;7.812;2023-02-18T05:08:08;11.50;80.60
72206;DHT22;60111;48.286;7.812;2023-02-18T05:10:40;11.50;80.50
72206;DHT22;60111;48.286;7.812;2023-02-18T05:13:13;11.50;80.30
72206;DHT22;60111;48.286;7.812;2023-02-18T05:15:45;11.50;80.40
72206;DHT22;60111;48.286;7.812;2023-02-18T05:18:18;11.50;80.40
72206;DHT22;60111;48.286;7.812;2023-02-18T05:20:50;11.50;80.30
72206;DHT22;60111;48.286;7.812;2023-02-18T05:23:23;11.50;80.40
72206;DHT22;60111;48.286;7.812;2023-02-18T05:25:56;11.50;80.40
72206;DHT22;60111;48.286;7.812;2023-02-18T05:28:29;11.40;80.50
72206;DHT22;60111;48.286;7.812;2023-02-18T05:31:01;11.50;80.30
72206;DHT22;60111;48.286;7.812;2023-02-18T05:33:34;11.50;80.20
72206;DHT22;60111;48.286;7.812;2023-02-18T05:36:06;11.50;80.00
72206;DHT22;60111;48.286;7.812;2023-02-18T05:38:39;11.50;80.10
72206;DHT22;60111;48.286;7.812;2023-02-18T05:41:12;11.50;79.90
72206;DHT22;60111;48.286;7.812;2023-02-18T05:43:44;11.50;79.80
72206;DHT22;60111;48.286;7.812;2023-02-18T05:46:35;11.50;79.70
72206;DHT22;60111;48.286;7.812;2023-02-18T05:49:07;11.60;79.40
72206;DHT22;60111;48.286;7.812;2023-02-18T05:51:40;11.60;79.40
72206;DHT22;60111;48.286;7.812;2023-02-18T05:54:12;11.60;79.30
72206;DHT22;60111;48.286;7.812;2023-02-18T05:56:45;11.60;79.10
72206;DHT22;60111;48.286;7.812;2023-02-18T05:59:18;11.60;79.10
72206;DHT22;60111;48.286;7.812;2023-02-18T06:01:51;11.60;79.10
72206;DHT22;60111;48.286;7.812;2023-02-18T06:04:24;11.60;79.00
72206;DHT22;60111;48.286;7.812;2023-02-18T06:06:56;11.60;78.90
72206;DHT22;60111;48.286;7.812;2023-02-18T06:09:29;11.60;78.80
72206;DHT22;60111;48.286;7.812;2023-02-18T06:12:02;11.60;78.70
72206;DHT22;60111;48.286;7.812;2023-02-18T06:14:34;11.60;78.60
72206;DHT22;60111;48.286;7.812;2023-02-18T06:17:08;11.60;78.50
72206;DHT22;60111;48.286;7.812;2023-02-18T06:19:41;11.70;78.50
72206;DHT22;60111;48.286;7.812;2023-02-18T06:22:13;11.60;78.50
72206;DHT22;60111;48.286;7.812;2023-02-18T06:24:46;11.60;78.40
72206;DHT22;60111;48.286;7.812;2023-02-18T06:27:19;11.60;78.30
72206;DHT22;60111;48.286;7.812;2023-02-18T06:29:52;11.60;78.20
72206;DHT22;60111;48.286;7.812;2023-02-18T06:32:24;11.60;78.20
72206;DHT22;60111;48.286;7.812;2023-02-18T06:34:57;11.60;78.20
72206;DHT22;60111;48.286;7.812;2023-02-18T06:37:29;11.60;78.20
72206;DHT22;60111;48.286;7.812;2023-02-18T06:40:02;11.70;78.20
72206;DHT22;60111;48.286;7.812;2023-02-18T06:42:35;11.60;78.30
72206;DHT22;60111;48.286;7.812;2023-02-18T06:45:07;11.60;78.10
72206;DHT22;60111;48.286;7.812;2023-02-18T06:47:40;11.70;78.00
72206;DHT22;60111;48.286;7.812;2023-02-18T06:50:13;11.60;78.20
72206;DHT22;60111;48.286;7.812;2023-02-18T06:52:46;11.70;78.10
72206;DHT22;60111;48.286;7.812;2023-02-18T06:55:18;11.60;78.20
72206;DHT22;60111;48.286;7.812;2023-02-18T06:57:51;11.60;78.70
72206;DHT22;60111;48.286;7.812;2023-02-18T07:00:23;11.60;78.50
72206;DHT22;60111;48.286;7.812;2023-02-18T07:02:56;11.60;78.50
72206;DHT22;60111;48.286;7.812;2023-02-18T07:05:29;11.70;78.60
72206;DHT22;60111;48.286;7.812;2023-02-18T07:08:01;11.70;78.50
72206;DHT22;60111;48.286;7.812;2023-02-18T07:10:34;11.70;78.80
72206;DHT22;60111;48.286;7.812;2023-02-18T07:13:07;11.70;78.90
72206;DHT22;60111;48.286;7.812;2023-02-18T07:15:39;11.70;79.00
72206;DHT22;60111;48.286;7.812;2023-02-18T07:18:12;11.70;78.70
72206;DHT22;60111;48.286;7.812;2023-02-18T07:20:45;11.70;78.70
72206;DHT22;60111;48.286;7.812;2023-02-18T07:23:18;11.70;78.90
72206;DHT22;60111;48.286;7.812;2023-02-18T07:25:51;11.70;78.90
72206;DHT22;60111;48.286;7.812;2023-02-18T07:28:23;11.70;78.90
72206;DHT22;60111;48.286;7.812;2023-02-18T07:30:56;11.70;78.90
72206;DHT22;60111;48.286;7.812;2023-02-18T07:33:28;11.70;78.90
72206;DHT22;60111;48.286;7.812;2023-02-18T07:36:02;11.80;78.60
72206;DHT22;60111;48.286;7.812;2023-02-18T07:38:34;11.80;78.50
72206;DHT22;60111;48.286;7.812;2023-02-18T07:41:27;11.90;78.20
72206;DHT22;60111;48.286;7.812;2023-02-18T07:43:45;11.90;78.00
72206;DHT22;60111;48.286;7.812;2023-02-18T07:46:18;11.90;77.70
72206;DHT22;60111;48.286;7.812;2023-02-18T07:48:51;12.00;77.60
72206;DHT22;60111;48.286;7.812;2023-02-18T07:51:23;12.00;77.40
72206;DHT22;60111;48.286;7.812;2023-02-18T07:53:56;12.00;77.10
72206;DHT22;60111;48.286;7.812;2023-02-18T07:56:28;12.10;76.90
72206;DHT22;60111;48.286;7.812;2023-02-18T07:59:01;12.00;76.80
72206;DHT22;60111;48.286;7.812;2023-02-18T08:01:34;12.20;76.70
72206;DHT22;60111;48.286;7.812;2023-02-18T08:04:07;12.20;76.20
72206;DHT22;60111;48.286;7.812;2023-02-18T08:06:44;12.30;75.70
72206;DHT22;60111;48.286;7.812;2023-02-18T08:09:18;12.40;75.60
72206;DHT22;60111;48.286;7.812;2023-02-18T08:11:51;12.40;75.20
72206;DHT22;60111;48.286;7.812;2023-02-18T08:14:23;12.50;75.20
72206;DHT22;60111;48.286;7.812;2023-02-18T08:16:56;12.50;75.20
72206;DHT22;60111;48.286;7.812;2023-02-18T08:19:28;12.50;74.90
72206;DHT22;60111;48.286;7.812;2023-02-18T08:22:02;12.50;74.80
72206;DHT22;60111;48.286;7.812;2023-02-18T08:24:34;12.60;74.60
72206;DHT22;60111;48.286;7.812;2023-02-18T08:27:07;12.60;74.50
72206;DHT22;60111;48.286;7.812;2023-02-18T08:29:40;12.60;74.50
72206;DHT22;60111;48.286;7.812;2023-02-18T08:32:12;12.60;74.20
72206;DHT22;60111;48.286;7.812;2023-02-18T08:34:45;12.60;74.10
72206;DHT22;60111;48.286;7.812;2023-02-18T08:37:18;12.60;74.20
72206;DHT22;60111;48.286;7.812;2023-02-18T08:39:51;12.70;74.20
72206;DHT22;60111;48.286;7.812;2023-02-18T08:42:23;12.70;73.90
72206;DHT22;60111;48.286;7.812;2023-02-18T08:44:56;12.80;73.50
72206;DHT22;60111;48.286;7.812;2023-02-18T08:47:29;12.90;73.30
72206;DHT22;60111;48.286;7.812;2023-02-18T08:50:01;12.90;73.00
72206;DHT22;60111;48.286;7.812;2023-02-18T08:52:34;12.90;73.10
72206;DHT22;60111;48.286;7.812;2023-02-18T08:55:06;12.90;73.20
72206;DHT22;60111;48.286;7.812;2023-02-18T08:57:39;13.00;73.10
72206;DHT22;60111;48.286;7.812;2023-02-18T09:00:14;13.00;73.30
72206;DHT22;60111;48.286;7.812;2023-02-18T09:02:48;13.00;73.10
72206;DHT22;60111;48.286;7.812;2023-02-18T09:05:21;13.00;73.50
72206;DHT22;60111;48.286;7.812;2023-02-18T09:07:53;13.00;73.60
72206;DHT22;60111;48.286;7.812;2023-02-18T09:10:26;13.00;72.90
72206;DHT22;60111;48.286;7.812;2023-02-18T09:12:59;13.10;72.50
72206;DHT22;60111;48.286;7.812;2023-02-18T09:15:31;13.10;72.80
72206;DHT22;60111;48.286;7.812;2023-02-18T09:18:04;13.10;72.60
72206;DHT22;60111;48.286;7.812;2023-02-18T09:20:38;13.10;72.80
72206;DHT22;60111;48.286;7.812;2023-02-18T09:23:10;13.10;72.60
72206;DHT22;60111;48.286;7.812;2023-02-18T09:25:43;13.20;72.40
72206;DHT22;60111;48.286;7.812;2023-02-18T09:28:15;13.10;72.80
72206;DHT22;60111;48.286;7.812;2023-02-18T09:30:49;13.20;72.80
72206;DHT22;60111;48.286;7.812;2023-02-18T09:33:21;13.30;71.90
72206;DHT22;60111;48.286;7.812;2023-02-18T09:35:54;13.30;72.10
72206;DHT22;60111;48.286;7.812;2023-02-18T09:38:26;13.40;71.70
72206;DHT22;60111;48.286;7.812;2023-02-18T09:41:01;13.40;71.70
72206;DHT22;60111;48.286;7.812;2023-02-18T09:43:39;13.40;71.10
72206;DHT22;60111;48.286;7.812;2023-02-18T09:46:23;13.50;71.10
72206;DHT22;60111;48.286;7.812;2023-02-18T09:48:56;13.60;70.40
72206;DHT22;60111;48.286;7.812;2023-02-18T09:51:29;13.70;70.20
72206;DHT22;60111;48.286;7.812;2023-02-18T09:54:01;13.80;70.00
72206;DHT22;60111;48.286;7.812;2023-02-18T09:56:36;13.80;69.10
72206;DHT22;60111;48.286;7.812;2023-02-18T09:59:12;13.90;69.00
72206;DHT22;60111;48.286;7.812;2023-02-18T10:01:46;14.00;68.50
72206;DHT22;60111;48.286;7.812;2023-02-18T10:04:26;14.00;67.60
72206;DHT22;60111;48.286;7.812;2023-02-18T10:06:58;14.00;68.00
72206;DHT22;60111;48.286;7.812;2023-02-18T10:09:36;14.10;67.40
72206;DHT22;60111;48.286;7.812;2023-02-18T10:12:21;14.00;66.70
72206;DHT22;60111;48.286;7.812;2023-02-18T10:14:56;14.00;67.20
72206;DHT22;60111;48.286;7.812;2023-02-18T10:17:31;14.10;67.10
72206;DHT22;60111;48.286;7.812;2023-02-18T10:20:05;14.10;66.50
72206;DHT22;60111;48.286;7.812;2023-02-18T10:22:38;14.10;66.40
72206;DHT22;60111;48.286;7.812;2023-02-18T10:25:16;14.10;66.10
72206;DHT22;60111;48.286;7.812;2023-02-18T10:27:48;14.20;66.10
72206;DHT22;60111;48.286;7.812;2023-02-18T10:30:23;14.20;66.30
72206;DHT22;60111;48.286;7.812;2023-02-18T10:33:09;14.10;66.10
72206;DHT22;60111;48.286;7.812;2023-02-18T10:35:38;14.10;66.70
72206;DHT22;60111;48.286;7.812;2023-02-18T10:38:17;14.20;66.60
72206;DHT22;60111;48.286;7.812;2023-02-18T10:49:27;14.00;67.10
72206;DHT22;60111;48.286;7.812;2023-02-18T10:51:58;14.00;67.30
72206;DHT22;60111;48.286;7.812;2023-02-18T10:54:52;13.90;67.20
72206;DHT22;60111;48.286;7.812;2023-02-18T10:57:25;13.90;67.70
72206;DHT22;60111;48.286;7.812;2023-02-18T11:00:00;14.00;68.10
72206;DHT22;60111;48.286;7.812;2023-02-18T11:02:34;14.10;68.10
72206;DHT22;60111;48.286;7.812;2023-02-18T11:05:29;14.10;68.20
72206;DHT22;60111;48.286;7.812;2023-02-18T11:07:58;14.20;68.00
72206;DHT22;60111;48.286;7.812;2023-02-18T11:10:38;14.20;67.00
72206;DHT22;60111;48.286;7.812;2023-02-18T11:13:14;14.30;67.10
72206;DHT22;60111;48.286;7.812;2023-02-18T11:15:58;14.50;67.50
72206;DHT22;60111;48.286;7.812;2023-02-18T11:18:40;14.60;67.30
72206;DHT22;60111;48.286;7.812;2023-02-18T11:21:36;14.80;66.40
72206;DHT22;60111;48.286;7.812;2023-02-18T11:24:14;14.90;65.80
72206;DHT22;60111;48.286;7.812;2023-02-18T11:26:45;15.10;65.40
72206;DHT22;60111;48.286;7.812;2023-02-18T11:29:21;15.60;64.00
72206;DHT22;60111;48.286;7.812;2023-02-18T11:31:56;16.20;62.60
72206;DHT22;60111;48.286;7.812;2023-02-18T11:34:30;16.50;61.00
72206;DHT22;60111;48.286;7.812;2023-02-18T11:37:12;16.90;59.80
72206;DHT22;60111;48.286;7.812;2023-02-18T11:39:47;16.80;59.80
72206;DHT22;60111;48.286;7.812;2023-02-18T11:42:23;16.80;60.00
72206;DHT22;60111;48.286;7.812;2023-02-18T11:44:58;16.80;60.10
72206;DHT22;60111;48.286;7.812;2023-02-18T11:47:34;16.70;59.10
72206;DHT22;60111;48.286;7.812;2023-02-18T11:50:16;16.50;59.70
72206;DHT22;60111;48.286;7.812;2023-02-18T11:52:50;16.20;60.40
72206;DHT22;60111;48.286;7.812;2023-02-18T11:55:24;15.90;61.20
72206;DHT22;60111;48.286;7.812;2023-02-18T11:58:03;15.70;62.00
72206;DHT22;60111;48.286;7.812;2023-02-18T12:00:47;15.70;61.80
72206;DHT22;60111;48.286;7.812;2023-02-18T12:03:42;15.50;62.30
72206;DHT22;60111;48.286;7.812;2023-02-18T12:06:21;15.70;62.30
72206;DHT22;60111;48.286;7.812;2023-02-18T12:09:08;16.20;61.50
72206;DHT22;60111;48.286;7.812;2023-02-18T12:11:42;16.40;59.50
72206;DHT22;60111;48.286;7.812;2023-02-18T12:14:21;16.20;59.90
72206;DHT22;60111;48.286;7.812;2023-02-18T12:19:50;15.70;61.00
72206;DHT22;60111;48.286;7.812;2023-02-18T12:22:44;15.50;61.90
72206;DHT22;60111;48.286;7.812;2023-02-18T12:28:54;15.20;62.50
72206;DHT22;60111;48.286;7.812;2023-02-18T12:36:48;15.20;62.70
72206;DHT22;60111;48.286;7.812;2023-02-18T12:42:35;15.10;63.10
72206;DHT22;60111;48.286;7.812;2023-02-18T12:45:20;15.30;63.00
72206;DHT22;60111;48.286;7.812;2023-02-18T12:48:12;15.50;61.90
72206;DHT22;60111;48.286;7.812;2023-02-18T12:50:46;15.50;61.70
72206;DHT22;60111;48.286;7.812;2023-02-18T12:53:34;15.30;62.30
72206;DHT22;60111;48.286;7.812;2023-02-18T12:56:14;15.30;62.50
72206;DHT22;60111;48.286;7.812;2023-02-18T12:59:00;15.50;62.40
72206;DHT22;60111;48.286;7.812;2023-02-18T13:07:28;15.40;61.20
72206;DHT22;60111;48.286;7.812;2023-02-18T13:13:13;15.30;61.00
72206;DHT22;60111;48.286;7.812;2023-02-18T13:16:02;15.30;61.00
72206;DHT22;60111;48.286;7.812;2023-02-18T13:18:38;15.30;60.90
72206;DHT22;60111;48.286;7.812;2023-02-18T13:21:14;15.30;60.60
72206;DHT22;60111;48.286;7.812;2023-02-18T13:24:01;15.30;60.70
72206;DHT22;60111;48.286;7.812;2023-02-18T13:26:33;15.40;60.60
72206;DHT22;60111;48.286;7.812;2023-02-18T13:30:12;15.30;60.30
72206;DHT22;60111;48.286;7.812;2023-02-18T13:34:54;15.30;60.30
72206;DHT22;60111;48.286;7.812;2023-02-18T13:37:43;15.40;59.70
72206;DHT22;60111;48.286;7.812;2023-02-18T13:40:24;15.30;58.90
72206;DHT22;60111;48.286;7.812;2023-02-18T13:43:27;15.20;58.70
72206;DHT22;60111;48.286;7.812;2023-02-18T13:46:21;15.20;57.70
72206;DHT22;60111;48.286;7.812;2023-02-18T13:48:52;15.20;56.90
72206;DHT22;60111;48.286;7.812;2023-02-18T13:51:46;15.20;56.80
72206;DHT22;60111;48.286;7.812;2023-02-18T13:54:43;15.20;56.70
72206;DHT22;60111;48.286;7.812;2023-02-18T13:57:21;15.30;56.30
72206;DHT22;60111;48.286;7.812;2023-02-18T14:00:01;15.30;56.10
72206;DHT22;60111;48.286;7.812;2023-02-18T14:02:34;15.30;55.40
72206;DHT22;60111;48.286;7.812;2023-02-18T14:05:19;15.30;55.20
72206;DHT22;60111;48.286;7.812;2023-02-18T14:07:52;15.30;55.00
72206;DHT22;60111;48.286;7.812;2023-02-18T14:10:27;15.20;55.70
72206;DHT22;60111;48.286;7.812;2023-02-18T14:13:22;15.20;55.50
72206;DHT22;60111;48.286;7.812;2023-02-18T14:15:58;15.30;55.10
72206;DHT22;60111;48.286;7.812;2023-02-18T14:21:17;15.30;55.40
72206;DHT22;60111;48.286;7.812;2023-02-18T14:23:54;15.30;55.00
72206;DHT22;60111;48.286;7.812;2023-02-18T14:26:47;15.40;54.90
72206;DHT22;60111;48.286;7.812;2023-02-18T14:29:40;15.40;54.80
72206;DHT22;60111;48.286;7.812;2023-02-18T14:32:15;15.40;54.50
72206;DHT22;60111;48.286;7.812;2023-02-18T14:35:04;15.30;54.70
72206;DHT22;60111;48.286;7.812;2023-02-18T14:40:40;15.40;55.10
72206;DHT22;60111;48.286;7.812;2023-02-18T14:43:29;15.30;54.50
72206;DHT22;60111;48.286;7.812;2023-02-18T14:46:09;15.40;54.60
72206;DHT22;60111;48.286;7.812;2023-02-18T14:51:33;15.40;53.50
72206;DHT22;60111;48.286;7.812;2023-02-18T14:54:11;15.30;52.40
72206;DHT22;60111;48.286;7.812;2023-02-18T14:56:57;15.40;53.00
72206;DHT22;60111;48.286;7.812;2023-02-18T14:59:28;15.30;53.40
72206;DHT22;60111;48.286;7.812;2023-02-18T15:02:01;15.30;53.40
72206;DHT22;60111;48.286;7.812;2023-02-18T15:04:34;15.30;53.90
72206;DHT22;60111;48.286;7.812;2023-02-18T15:07:09;15.20;54.40
72206;DHT22;60111;48.286;7.812;2023-02-18T15:09:48;15.20;54.30
72206;DHT22;60111;48.286;7.812;2023-02-18T15:12:22;15.20;55.00
72206;DHT22;60111;48.286;7.812;2023-02-18T15:14:59;15.20;55.00
72206;DHT22;60111;48.286;7.812;2023-02-18T15:17:31;15.10;55.10
72206;DHT22;60111;48.286;7.812;2023-02-18T15:20:05;15.10;55.30
72206;DHT22;60111;48.286;7.812;2023-02-18T15:22:39;15.00;55.10
72206;DHT22;60111;48.286;7.812;2023-02-18T15:25:12;15.00;55.10
72206;DHT22;60111;48.286;7.812;2023-02-18T15:27:45;15.00;55.30
72206;DHT22;60111;48.286;7.812;2023-02-18T15:30:29;14.90;55.70
72206;DHT22;60111;48.286;7.812;2023-02-18T15:33:02;14.90;55.20
72206;DHT22;60111;48.286;7.812;2023-02-18T15:35:39;15.00;55.10
72206;DHT22;60111;48.286;7.812;2023-02-18T15:38:17;14.90;54.70
72206;DHT22;60111;48.286;7.812;2023-02-18T15:40:51;14.90;54.50
72206;DHT22;60111;48.286;7.812;2023-02-18T15:43:26;14.90;54.40
72206;DHT22;60111;48.286;7.812;2023-02-18T15:45:58;14.90;54.60
72206;DHT22;60111;48.286;7.812;2023-02-18T15:51:10;14.80;54.70
72206;DHT22;60111;48.286;7.812;2023-02-18T15:53:44;14.80;54.90
72206;DHT22;60111;48.286;7.812;2023-02-18T15:56:38;14.80;54.90
72206;DHT22;60111;48.286;7.812;2023-02-18T16:01:52;14.80;55.30
72206;DHT22;60111;48.286;7.812;2023-02-18T16:04:28;14.80;54.80
72206;DHT22;60111;48.286;7.812;2023-02-18T16:07:04;14.70;55.20
72206;DHT22;60111;48.286;7.812;2023-02-18T16:09:38;14.80;54.80
72206;DHT22;60111;48.286;7.812;2023-02-18T16:12:33;14.80;55.00
72206;DHT22;60111;48.286;7.812;2023-02-18T16:14:54;14.70;54.40
72206;DHT22;60111;48.286;7.812;2023-02-18T16:17:28;14.70;54.30
72206;DHT22;60111;48.286;7.812;2023-02-18T16:20:51;14.60;54.50
72206;DHT22;60111;48.286;7.812;2023-02-18T16:22:43;14.50;54.50
72206;DHT22;60111;48.286;7.812;2023-02-18T16:28:23;14.50;54.90
72206;DHT22;60111;48.286;7.812;2023-02-18T16:30:58;14.50;55.10
72206;DHT22;60111;48.286;7.812;2023-02-18T16:33:30;14.40;55.30
72206;DHT22;60111;48.286;7.812;2023-02-18T16:36:03;14.40;55.40
72206;DHT22;60111;48.286;7.812;2023-02-18T16:38:36;14.50;55.20
72206;DHT22;60111;48.286;7.812;2023-02-18T16:41:11;14.60;55.00
72206;DHT22;60111;48.286;7.812;2023-02-18T16:43:44;14.60;55.50
72206;DHT22;60111;48.286;7.812;2023-02-18T16:46:18;14.50;56.10
72206;DHT22;60111;48.286;7.812;2023-02-18T16:48:53;14.40;56.60
72206;DHT22;60111;48.286;7.812;2023-02-18T16:51:32;14.40;56.50
72206;DHT22;60111;48.286;7.812;2023-02-18T16:54:05;14.30;56.60
72206;DHT22;60111;48.286;7.812;2023-02-18T16:56:40;14.20;56.80
72206;DHT22;60111;48.286;7.812;2023-02-18T16:59:12;14.20;56.70
72206;DHT22;60111;48.286;7.812;2023-02-18T17:01:45;14.20;56.50
72206;DHT22;60111;48.286;7.812;2023-02-18T17:04:18;14.10;56.70
72206;DHT22;60111;48.286;7.812;2023-02-18T17:06:50;14.20;56.70
72206;DHT22;60111;48.286;7.812;2023-02-18T17:09:23;14.20;56.70
72206;DHT22;60111;48.286;7.812;2023-02-18T17:11:57;14.10;57.00
72206;DHT22;60111;48.286;7.812;2023-02-18T17:14:32;14.00;57.20
72206;DHT22;60111;48.286;7.812;2023-02-18T17:17:08;14.00;57.10
72206;DHT22;60111;48.286;7.812;2023-02-18T17:19:39;14.00;57.20
72206;DHT22;60111;48.286;7.812;2023-02-18T17:22:13;13.90;57.60
72206;DHT22;60111;48.286;7.812;2023-02-18T17:24:45;14.00;57.50
72206;DHT22;60111;48.286;7.812;2023-02-18T17:27:18;13.90;57.70
72206;DHT22;60111;48.286;7.812;2023-02-18T17:29:51;13.90;57.70
72206;DHT22;60111;48.286;7.812;2023-02-18T17:32:23;13.90;57.80
72206;DHT22;60111;48.286;7.812;2023-02-18T17:34:56;13.90;57.70
72206;DHT22;60111;48.286;7.812;2023-02-18T17:37:28;13.80;58.00
72206;DHT22;60111;48.286;7.812;2023-02-18T17:40:01;13.80;58.10
72206;DHT22;60111;48.286;7.812;2023-02-18T17:42:34;13.80;58.10
72206;DHT22;60111;48.286;7.812;2023-02-18T17:45:22;13.70;57.90
72206;DHT22;60111;48.286;7.812;2023-02-18T17:47:51;13.70;58.10
72206;DHT22;60111;48.286;7.812;2023-02-18T17:50:24;13.70;58.60
72206;DHT22;60111;48.286;7.812;2023-02-18T17:52:57;13.70;59.10
72206;DHT22;60111;48.286;7.812;2023-02-18T17:55:32;13.60;59.40